Time,TemperatureF,DewpointF,PressureIn,WindDirection,WindDirectionDegrees,WindSpeedMPH,WindSpeedGustMPH,Humidity,HourlyPrecipIn,Conditions,Clouds,dailyrainin,SoftwareType,DateUTC
2013-04-09 00:00:00,60.6,55.1,30.07,SE,145,0.0,0.0,82,0.00,,,0.00,Wunderground v.1.15,2013-04-09 04:00:00,
2013-04-09 07:30:00,52.3,51.5,30.14,South,181,0.0,1.0,97,0.00,,,0.00,Wunderground v.1.15,2013-04-09 11:30:00,
2013-04-09 07:35:00,52.5,51.7,30.14,South,182,0.0,1.0,97,0.00,,,0.00,Wunderground v.1.15,2013-04-09 11:35:00,
2013-04-09 07:40:00,52.6,51.8,30.14,South,181,0.0,0.0,97,0.00,,,0.00,Wunderground v.1.15,2013-04-09 11:40:00,
2013-04-09 07:45:00,52.8,52.0,30.15,South,181,0.0,0.0,97,0.00,,,0.00,Wunderground v.1.15,2013-04-09 11:45:00,
2013-04-09 07:50:00,53.1,52.3,30.15,South,181,0.0,0.0,97,0.00,,,0.00,Wunderground v.1.15,2013-04-09 11:50:00,
2013-04-09 08:00:00,53.4,52.6,30.15,South,181,0.0,0.0,97,0.00,,,0.00,Wunderground v.1.15,2013-04-09 12:00:00,
2013-04-09 08:05:00,53.8,53.2,30.15,South,181,0.0,0.0,98,0.00,,,0.00,Wunderground v.1.15,2013-04-09 12:05:00,
2013-04-09 08:15:00,55.0,54.4,30.15,South,180,0.0,0.0,98,0.00,,,0.00,Wunderground v.1.15,2013-04-09 12:15:00,
2013-04-09 08:20:00,55.7,55.4,30.15,South,179,0.0,0.0,99,0.00,,,0.00,Wunderground v.1.15,2013-04-09 12:20:00,
2013-04-09 08:25:00,56.6,56.3,30.15,SSE,165,0.0,0.0,99,0.00,,,0.00,Wunderground v.1.15,2013-04-09 12:25:00,
2013-04-09 08:35:00,58.0,57.7,30.16,WSW,255,0.0,0.0,99,0.00,,,0.00,Wunderground v.1.15,2013-04-09 12:35:00,
2013-04-09 08:40:00,58.6,58.0,30.16,South,181,0.0,0.0,98,0.00,,,0.00,Wunderground v.1.15,2013-04-09 12:40:00,
2013-04-09 08:55:00,60.4,59.0,30.16,NW,326,0.0,0.0,95,0.00,,,0.00,Wunderground v.1.15,2013-04-09 12:55:00,
2013-04-09 09:00:00,61.0,59.0,30.16,SSE,166,0.0,0.0,93,0.00,,,0.00,Wunderground v.1.15,2013-04-09 13:00:00,
2013-04-09 09:10:00,62.2,59.2,30.16,East,81,1.0,2.0,90,0.00,,,0.00,Wunderground v.1.15,2013-04-09 13:10:00,
2013-04-09 09:15:00,62.7,59.4,30.16,South,174,1.0,2.0,89,0.00,,,0.00,Wunderground v.1.15,2013-04-09 13:15:00,
2013-04-09 09:25:00,63.8,59.5,30.16,South,180,1.0,2.0,86,0.00,,,0.00,Wunderground v.1.15,2013-04-09 13:25:00,
2013-04-09 09:30:00,64.5,59.6,30.16,SSE,150,1.0,1.0,84,0.00,,,0.00,Wunderground v.1.15,2013-04-09 13:30:00,
2013-04-09 09:40:00,65.6,59.6,30.16,SSW,208,1.0,1.0,81,0.00,,,0.00,Wunderground v.1.15,2013-04-09 13:40:00,
2013-04-09 09:50:00,66.5,59.8,30.16,SE,143,1.0,1.0,79,0.00,,,0.00,Wunderground v.1.15,2013-04-09 13:50:00,
2013-04-09 10:00:00,67.4,60.3,30.16,South,183,0.0,0.0,78,0.00,,,0.00,Wunderground v.1.15,2013-04-09 14:00:00,
2013-04-09 10:05:00,67.9,60.4,30.16,South,177,1.0,2.0,77,0.00,,,0.00,Wunderground v.1.15,2013-04-09 14:05:00,
2013-04-09 10:15:00,68.7,60.1,30.16,ESE,116,1.0,1.0,74,0.00,,,0.00,Wunderground v.1.15,2013-04-09 14:15:00,
2013-04-09 10:20:00,69.2,59.4,30.16,South,190,1.0,1.0,71,0.00,,,0.00,Wunderground v.1.15,2013-04-09 14:20:00,
2013-04-09 10:25:00,69.7,59.9,30.16,SSE,149,2.0,2.0,71,0.00,,,0.00,Wunderground v.1.15,2013-04-09 14:25:00,
2013-04-09 10:30:00,70.1,59.5,30.16,SSE,163,1.0,1.0,69,0.00,,,0.00,Wunderground v.1.15,2013-04-09 14:30:00,
2013-04-09 10:40:00,70.9,59.8,30.16,South,174,1.0,1.0,68,0.00,,,0.00,Wunderground v.1.15,2013-04-09 14:40:00,
2013-04-09 10:45:00,71.4,59.9,30.16,SSE,167,1.0,1.0,67,0.00,,,0.00,Wunderground v.1.15,2013-04-09 14:45:00,
2013-04-09 10:55:00,72.2,59.8,30.16,SE,134,1.0,1.0,65,0.00,,,0.00,Wunderground v.1.15,2013-04-09 14:55:00,
2013-04-09 11:00:00,72.6,59.7,30.16,South,170,1.0,2.0,64,0.00,,,0.00,Wunderground v.1.15,2013-04-09 15:00:00,
2013-04-09 11:10:00,73.6,60.2,30.16,West,269,1.0,2.0,63,0.00,,,0.00,Wunderground v.1.15,2013-04-09 15:10:00,
2013-04-09 11:15:00,74.2,59.9,30.16,South,188,1.0,2.0,61,0.00,,,0.00,Wunderground v.1.15,2013-04-09 15:15:00,
2013-04-09 11:25:00,75.4,60.1,30.16,SSE,167,0.0,1.0,59,0.00,,,0.00,Wunderground v.1.15,2013-04-09 15:25:00,
2013-04-09 11:30:00,75.9,60.1,30.16,SW,233,1.0,1.0,58,0.00,,,0.00,Wunderground v.1.15,2013-04-09 15:30:00,
2013-04-09 11:40:00,77.1,61.2,30.15,South,184,1.0,1.0,58,0.00,,,0.00,Wunderground v.1.15,2013-04-09 15:40:00,
2013-04-09 11:45:00,77.8,60.3,30.15,SE,141,1.0,3.0,55,0.00,,,0.00,Wunderground v.1.15,2013-04-09 15:45:00,
2013-04-09 11:50:00,77.8,60.3,30.15,SE,138,1.0,1.0,55,0.00,,,0.00,Wunderground v.1.15,2013-04-09 15:50:00,
2013-04-09 11:55:00,78.3,60.8,30.15,South,181,1.0,1.0,55,0.00,,,0.00,Wunderground v.1.15,2013-04-09 15:55:00,
2013-04-09 12:00:00,79.0,60.9,30.15,North,354,1.0,2.0,54,0.00,,,0.00,Wunderground v.1.15,2013-04-09 16:00:00,
2013-04-09 12:10:00,79.5,60.3,30.14,ESE,113,1.0,1.0,52,0.00,,,0.00,Wunderground v.1.15,2013-04-09 16:10:00,
2013-04-09 12:15:00,80.1,60.3,30.14,South,188,1.0,1.0,51,0.00,,,0.00,Wunderground v.1.15,2013-04-09 16:15:00,
2013-04-09 12:20:00,80.2,59.3,30.14,ESE,103,1.0,1.0,49,0.00,,,0.00,Wunderground v.1.15,2013-04-09 16:20:00,
2013-04-09 12:25:00,80.5,59.6,30.13,South,169,1.0,1.0,49,0.00,,,0.00,Wunderground v.1.15,2013-04-09 16:25:00,
2013-04-09 12:35:00,81.4,60.4,30.13,SSW,200,1.0,1.0,49,0.00,,,0.00,Wunderground v.1.15,2013-04-09 16:35:00,
2013-04-09 12:40:00,81.7,60.1,30.13,SE,141,1.0,1.0,48,0.00,,,0.00,Wunderground v.1.15,2013-04-09 16:40:00,
2013-04-09 12:45:00,82.4,59.5,30.13,West,278,1.0,3.0,46,0.00,,,0.00,Wunderground v.1.15,2013-04-09 16:45:00,
2013-04-09 12:55:00,82.0,58.6,30.12,SW,235,1.0,3.0,45,0.00,,,0.00,Wunderground v.1.15,2013-04-09 16:55:00,
2013-04-09 13:00:00,82.0,57.3,30.12,SSE,150,1.0,1.0,43,0.00,,,0.00,Wunderground v.1.15,2013-04-09 17:00:00,
2013-04-09 13:10:00,82.8,58.0,30.11,South,169,1.0,1.0,43,0.00,,,0.00,Wunderground v.1.15,2013-04-09 17:10:00,
2013-04-09 13:15:00,82.7,57.9,30.11,SE,131,1.0,1.0,43,0.00,,,0.00,Wunderground v.1.15,2013-04-09 17:15:00,
2013-04-09 13:25:00,82.5,57.1,30.11,SSE,159,1.0,1.0,42,0.00,,,0.00,Wunderground v.1.15,2013-04-09 17:25:00,
2013-04-09 13:35:00,83.0,56.9,30.11,South,172,1.0,2.0,41,0.00,,,0.00,Wunderground v.1.15,2013-04-09 17:35:00,
2013-04-09 13:40:00,83.3,56.5,30.10,ESE,108,1.0,1.0,40,0.00,,,0.00,Wunderground v.1.15,2013-04-09 17:40:00,
2013-04-09 13:50:00,83.3,57.8,30.10,NE,39,1.0,2.0,42,0.00,,,0.00,Wunderground v.1.15,2013-04-09 17:50:00,
2013-04-09 13:55:00,83.6,58.1,30.10,SSE,165,1.0,2.0,42,0.00,,,0.00,Wunderground v.1.15,2013-04-09 17:55:00,
2013-04-09 14:05:00,84.3,57.3,30.10,SW,215,2.0,5.0,40,0.00,,,0.00,Wunderground v.1.15,2013-04-09 18:05:00,
2013-04-09 14:10:00,84.1,57.2,30.09,SW,235,1.0,2.0,40,0.00,,,0.00,Wunderground v.1.15,2013-04-09 18:10:00,
2013-04-09 14:20:00,84.2,58.6,30.09,WNW,283,1.0,1.0,42,0.00,,,0.00,Wunderground v.1.15,2013-04-09 18:20:00,
2013-04-09 14:25:00,84.9,57.2,30.09,SE,130,1.0,1.0,39,0.00,,,0.00,Wunderground v.1.15,2013-04-09 18:25:00,
2013-04-09 14:30:00,85.0,58.0,30.09,SSW,195,1.0,4.0,40,0.00,,,0.00,Wunderground v.1.15,2013-04-09 18:30:00,
2013-04-09 14:40:00,84.8,57.1,30.08,South,181,1.0,1.0,39,0.00,,,0.00,Wunderground v.1.15,2013-04-09 18:40:00,
2013-04-09 14:45:00,85.0,58.0,30.08,SSE,164,1.0,1.0,40,0.00,,,0.00,Wunderground v.1.15,2013-04-09 18:45:00,
2013-04-09 14:55:00,86.2,58.3,30.08,SSE,167,1.0,2.0,39,0.00,,,0.00,Wunderground v.1.15,2013-04-09 18:55:00,
2013-04-09 15:00:00,86.4,59.2,30.08,SSW,193,1.0,1.0,40,0.00,,,0.00,Wunderground v.1.15,2013-04-09 19:00:00,
2013-04-09 15:10:00,85.2,58.8,30.07,East,84,1.0,1.0,41,0.00,,,0.00,Wunderground v.1.15,2013-04-09 19:10:00,
2013-04-09 15:20:00,85.5,57.7,30.07,SE,139,1.0,1.0,39,0.00,,,0.00,Wunderground v.1.15,2013-04-09 19:20:00,
2013-04-09 15:25:00,85.2,58.8,30.06,SSE,162,1.0,1.0,41,0.00,,,0.00,Wunderground v.1.15,2013-04-09 19:25:00,
2013-04-09 15:35:00,85.0,58.7,30.06,ESE,117,1.0,2.0,41,0.00,,,0.00,Wunderground v.1.15,2013-04-09 19:35:00,
2013-04-09 15:45:00,85.2,58.2,30.06,South,173,1.0,2.0,40,0.00,,,0.00,Wunderground v.1.15,2013-04-09 19:45:00,
2013-04-09 15:50:00,85.0,58.7,30.05,South,181,2.0,2.0,41,0.00,,,0.00,Wunderground v.1.15,2013-04-09 19:50:00,
2013-04-09 16:00:00,85.4,58.3,30.05,ESE,116,1.0,1.0,40,0.00,,,0.00,Wunderground v.1.15,2013-04-09 20:00:00,
2013-04-09 16:10:00,85.4,58.3,30.05,SE,146,1.0,1.0,40,0.00,,,0.00,Wunderground v.1.15,2013-04-09 20:10:00,
2013-04-09 16:15:00,85.5,58.4,30.04,SSE,153,1.0,1.0,40,0.00,,,0.00,Wunderground v.1.15,2013-04-09 20:15:00,
2013-04-09 16:25:00,86.2,58.3,30.05,South,190,1.0,4.0,39,0.00,,,0.00,Wunderground v.1.15,2013-04-09 20:25:00,
2013-04-09 16:30:00,85.7,58.6,30.04,East,81,2.0,2.0,40,0.00,,,0.00,Wunderground v.1.15,2013-04-09 20:30:00,
2013-04-09 16:40:00,85.7,58.6,30.04,SE,141,1.0,1.0,40,0.00,,,0.00,Wunderground v.1.15,2013-04-09 20:40:00,
2013-04-09 16:45:00,85.4,57.6,30.04,SE,136,1.0,1.0,39,0.00,,,0.00,Wunderground v.1.15,2013-04-09 20:45:00,
2013-04-09 16:55:00,85.5,57.7,30.04,SSE,148,1.0,1.0,39,0.00,,,0.00,Wunderground v.1.15,2013-04-09 20:55:00,
2013-04-09 17:00:00,85.4,58.3,30.04,South,174,1.0,2.0,40,0.00,,,0.00,Wunderground v.1.15,2013-04-09 21:00:00,
2013-04-09 17:10:00,84.9,57.9,30.04,SE,131,1.0,1.0,40,0.00,,,0.00,Wunderground v.1.15,2013-04-09 21:10:00,
2013-04-09 17:20:00,84.4,58.1,30.03,South,170,2.0,2.0,41,0.00,,,0.00,Wunderground v.1.15,2013-04-09 21:20:00,
2013-04-09 17:30:00,84.4,59.5,30.04,SE,126,1.0,1.0,43,0.00,,,0.00,Wunderground v.1.15,2013-04-09 21:30:00,
2013-04-09 17:35:00,84.7,58.4,30.04,SE,143,1.0,1.0,41,0.00,,,0.00,Wunderground v.1.15,2013-04-09 21:35:00,
2013-04-09 17:45:00,84.3,58.7,30.04,SSW,201,1.0,1.0,42,0.00,,,0.00,Wunderground v.1.15,2013-04-09 21:45:00,
2013-04-09 17:50:00,84.2,59.3,30.04,SSE,166,1.0,2.0,43,0.00,,,0.00,Wunderground v.1.15,2013-04-09 21:50:00,
2013-04-09 18:00:00,84.4,58.8,30.04,SSW,195,1.0,1.0,42,0.00,,,0.00,Wunderground v.1.15,2013-04-09 22:00:00,
2013-04-09 18:05:00,84.1,58.5,30.04,SSE,158,1.0,1.0,42,0.00,,,0.00,Wunderground v.1.15,2013-04-09 22:05:00,
2013-04-09 18:10:00,84.1,59.2,30.04,SSE,163,1.0,1.0,43,0.00,,,0.00,Wunderground v.1.15,2013-04-09 22:10:00,
2013-04-09 18:20:00,83.8,58.9,30.04,South,186,1.0,2.0,43,0.00,,,0.00,Wunderground v.1.15,2013-04-09 22:20:00,
2013-04-09 18:25:00,83.4,59.2,30.05,South,176,1.0,2.0,44,0.00,,,0.00,Wunderground v.1.15,2013-04-09 22:25:00,
2013-04-09 18:30:00,83.0,58.8,30.05,SSW,196,1.0,1.0,44,0.00,,,0.00,Wunderground v.1.15,2013-04-09 22:30:00,
2013-04-09 18:40:00,81.9,59.1,30.05,SSE,164,1.0,1.0,46,0.00,,,0.00,Wunderground v.1.15,2013-04-09 22:40:00,
2013-04-09 18:45:00,81.5,58.7,30.05,South,179,1.0,1.0,46,0.00,,,0.00,Wunderground v.1.15,2013-04-09 22:45:00,
2013-04-09 18:55:00,80.7,59.2,30.04,ESE,113,0.0,1.0,48,0.00,,,0.00,Wunderground v.1.15,2013-04-09 22:55:00,
2013-04-09 19:00:00,80.3,59.4,30.04,ESE,116,0.0,0.0,49,0.00,,,0.00,Wunderground v.1.15,2013-04-09 23:00:00,
2013-04-09 19:10:00,80.2,59.3,30.04,South,181,1.0,1.0,49,0.00,,,0.00,Wunderground v.1.15,2013-04-09 23:10:00,
2013-04-09 19:15:00,80.0,59.1,30.04,South,169,0.0,1.0,49,0.00,,,0.00,Wunderground v.1.15,2013-04-09 23:15:00,
2013-04-09 19:25:00,79.2,59.0,30.04,SSE,167,0.0,0.0,50,0.00,,,0.00,Wunderground v.1.15,2013-04-09 23:25:00,
2013-04-09 19:30:00,78.8,59.7,30.04,SSE,167,0.0,0.0,52,0.00,,,0.00,Wunderground v.1.15,2013-04-09 23:30:00,
2013-04-09 19:40:00,77.6,59.1,30.04,SSE,167,0.0,0.0,53,0.00,,,0.00,Wunderground v.1.15,2013-04-09 23:40:00,
2013-04-09 19:50:00,76.2,59.4,30.04,SSE,167,0.0,0.0,56,0.00,,,0.00,Wunderground v.1.15,2013-04-09 23:50:00,
2013-04-09 20:00:00,74.9,59.6,30.04,SSE,167,0.0,0.0,59,0.00,,,0.00,Wunderground v.1.15,2013-04-10 00:00:00,
2013-04-09 20:05:00,74.3,59.5,30.05,SSE,167,0.0,0.0,60,0.00,,,0.00,Wunderground v.1.15,2013-04-10 00:05:00,
2013-04-09 20:15:00,73.1,59.3,30.05,SSE,167,0.0,0.0,62,0.00,,,0.00,Wunderground v.1.15,2013-04-10 00:15:00,
2013-04-09 20:20:00,72.4,59.1,30.04,SSE,167,0.0,0.0,63,0.00,,,0.00,Wunderground v.1.15,2013-04-10 00:20:00,
2013-04-09 20:30:00,71.3,58.9,30.05,SSE,167,0.0,0.0,65,0.00,,,0.00,Wunderground v.1.15,2013-04-10 00:30:00,
2013-04-09 20:35:00,71.0,59.1,30.05,SSE,167,0.0,0.0,66,0.00,,,0.00,Wunderground v.1.15,2013-04-10 00:35:00,
2013-04-09 20:40:00,70.6,59.1,30.05,SSE,167,0.0,0.0,67,0.00,,,0.00,Wunderground v.1.15,2013-04-10 00:40:00,
2013-04-09 20:45:00,70.2,59.1,30.05,SSE,167,0.0,0.0,68,0.00,,,0.00,Wunderground v.1.15,2013-04-10 00:45:00,
2013-04-09 20:55:00,69.6,59.4,30.06,SSW,198,0.0,0.0,70,0.00,,,0.00,Wunderground v.1.15,2013-04-10 00:55:00,
2013-04-09 21:00:00,69.3,59.5,30.06,SSW,195,0.0,0.0,71,0.00,,,0.00,Wunderground v.1.15,2013-04-10 01:00:00,
2013-04-09 21:10:00,68.5,59.5,30.06,SSW,195,0.0,0.0,73,0.00,,,0.00,Wunderground v.1.15,2013-04-10 01:10:00,
2013-04-09 21:15:00,68.1,59.5,30.07,SSW,195,0.0,0.0,74,0.00,,,0.00,Wunderground v.1.15,2013-04-10 01:15:00,
2013-04-09 21:25:00,67.3,59.1,30.07,SSW,195,0.0,0.0,75,0.00,,,0.00,Wunderground v.1.15,2013-04-10 01:25:00,
2013-04-09 21:30:00,66.9,58.7,30.07,SSW,195,0.0,0.0,75,0.00,,,0.00,Wunderground v.1.15,2013-04-10 01:30:00,
2013-04-09 21:35:00,66.6,58.8,30.07,SSW,195,0.0,0.0,76,0.00,,,0.00,Wunderground v.1.15,2013-04-10 01:35:00,
2013-04-09 21:50:00,65.5,57.7,30.07,SSW,195,0.0,0.0,76,0.00,,,0.00,Wunderground v.1.15,2013-04-10 01:50:00,
2013-04-09 22:00:00,65.0,57.6,30.07,SSW,196,0.0,0.0,77,0.00,,,0.00,Wunderground v.1.15,2013-04-10 02:00:00,
2013-04-09 22:05:00,64.7,57.7,30.07,SSW,196,0.0,0.0,78,0.00,,,0.00,Wunderground v.1.15,2013-04-10 02:05:00,
2013-04-09 22:10:00,64.5,57.5,30.07,SSW,195,0.0,0.0,78,0.00,,,0.00,Wunderground v.1.15,2013-04-10 02:10:00,
2013-04-09 22:15:00,64.3,57.6,30.07,SSW,195,0.0,0.0,79,0.00,,,0.00,Wunderground v.1.15,2013-04-10 02:15:00,
2013-04-09 22:25:00,63.7,57.4,30.07,SSW,195,0.0,0.0,80,0.00,,,0.00,Wunderground v.1.15,2013-04-10 02:25:00,
2013-04-09 22:30:00,63.5,57.6,30.07,SSW,196,0.0,0.0,81,0.00,,,0.00,Wunderground v.1.15,2013-04-10 02:30:00,
2013-04-09 22:40:00,63.1,57.5,30.07,SSW,194,0.0,0.0,82,0.00,,,0.00,Wunderground v.1.15,2013-04-10 02:40:00,
2013-04-09 22:50:00,62.8,57.6,30.07,SSW,194,0.0,0.0,83,0.00,,,0.00,Wunderground v.1.15,2013-04-10 02:50:00,
2013-04-09 22:55:00,62.7,57.5,30.06,SSW,194,0.0,0.0,83,0.00,,,0.00,Wunderground v.1.15,2013-04-10 02:55:00,
2013-04-09 23:00:00,62.6,57.7,30.06,SSW,194,0.0,0.0,84,0.00,,,0.00,Wunderground v.1.15,2013-04-10 03:00:00,
2013-04-09 23:10:00,62.6,57.4,30.06,SSW,194,0.0,0.0,83,0.00,,,0.00,Wunderground v.1.15,2013-04-10 03:10:00,
2013-04-09 23:15:00,62.5,57.6,30.06,SSW,194,0.0,0.0,84,0.00,,,0.00,Wunderground v.1.15,2013-04-10 03:15:00,
2013-04-09 23:20:00,62.2,57.3,30.06,SSW,194,0.0,0.0,84,0.00,,,0.00,Wunderground v.1.15,2013-04-10 03:20:00,